sensor_id;sensor_type;location;lat;lon;timestamp;pressure;altitude;pressure_sealevel;temperature;humidity
57412;BME280;43247;52.828;-8.980;2023-05-19T00:00:13;103099.50;;;12.40;80.20
57412;BME280;43247;52.828;-8.980;2023-05-19T00:01:13;103098.42;;;12.40;80.18
57412;BME280;43247;52.828;-8.980;2023-05-19T00:02:13;103097.66;;;12.39;80.17
57412;BME280;43247;52.828;-8.980;2023-05-19T00:03:13;103098.31;;;12.38;80.18
57412;BME280;43247;52.828;-8.980;2023-05-19T00:04:14;103099.26;;;12.37;80.15
57412;BME280;43247;52.828;-8.980;2023-05-19T00:05:14;103100.40;;;12.36;80.28
57412;BME280;43247;52.828;-8.980;2023-05-19T00:06:14;103102.27;;;12.34;80.35
57412;BME280;43247;52.828;-8.980;2023-05-19T00:07:17;103101.73;;;12.34;80.38
57412;BME280;43247;52.828;-8.980;2023-05-19T00:08:15;103101.74;;;12.32;80.32
57412;BME280;43247;52.828;-8.980;2023-05-19T00:09:16;103101.86;;;12.31;80.27
57412;BME280;43247;52.828;-8.980;2023-05-19T00:10:17;103100.93;;;12.31;80.37
57412;BME280;43247;52.828;-8.980;2023-05-19T00:11:17;103097.62;;;12.30;80.24
57412;BME280;43247;52.828;-8.980;2023-05-19T00:12:17;103097.89;;;12.29;80.30
57412;BME280;43247;52.828;-8.980;2023-05-19T00:13:18;103097.20;;;12.28;80.31
57412;BME280;43247;52.828;-8.980;2023-05-19T00:14:18;103096.86;;;12.27;80.24
57412;BME280;43247;52.828;-8.980;2023-05-19T00:15:18;103096.96;;;12.26;80.33
57412;BME280;43247;52.828;-8.980;2023-05-19T00:16:19;103093.41;;;12.25;80.29
57412;BME280;43247;52.828;-8.980;2023-05-19T00:17:19;103096.99;;;12.25;80.34
57412;BME280;43247;52.828;-8.980;2023-05-19T00:18:19;103098.38;;;12.24;80.25
57412;BME280;43247;52.828;-8.980;2023-05-19T00:19:20;103099.94;;;12.24;80.29
57412;BME280;43247;52.828;-8.980;2023-05-19T00:20:20;103101.80;;;12.21;80.40
57412;BME280;43247;52.828;-8.980;2023-05-19T00:21:20;103101.55;;;12.21;80.31
57412;BME280;43247;52.828;-8.980;2023-05-19T00:22:21;103102.67;;;12.20;80.15
57412;BME280;43247;52.828;-8.980;2023-05-19T00:23:21;103106.16;;;12.19;80.21
57412;BME280;43247;52.828;-8.980;2023-05-19T00:24:21;103105.94;;;12.18;80.18
57412;BME280;43247;52.828;-8.980;2023-05-19T00:25:21;103110.13;;;12.18;80.17
57412;BME280;43247;52.828;-8.980;2023-05-19T00:26:22;103109.82;;;12.18;80.29
57412;BME280;43247;52.828;-8.980;2023-05-19T00:27:22;103110.56;;;12.17;80.33
57412;BME280;43247;52.828;-8.980;2023-05-19T00:28:22;103110.69;;;12.16;80.22
57412;BME280;43247;52.828;-8.980;2023-05-19T00:29:22;103107.44;;;12.15;80.22
57412;BME280;43247;52.828;-8.980;2023-05-19T00:30:23;103106.58;;;12.15;80.27
57412;BME280;43247;52.828;-8.980;2023-05-19T00:31:23;103107.15;;;12.14;80.21
57412;BME280;43247;52.828;-8.980;2023-05-19T00:32:23;103108.35;;;12.13;80.17
57412;BME280;43247;52.828;-8.980;2023-05-19T00:33:24;103110.25;;;12.13;80.22
57412;BME280;43247;52.828;-8.980;2023-05-19T00:34:25;103113.56;;;12.12;80.09
57412;BME280;43247;52.828;-8.980;2023-05-19T00:35:25;103115.33;;;12.12;80.13
57412;BME280;43247;52.828;-8.980;2023-05-19T00:36:26;103114.40;;;12.11;80.16
57412;BME280;43247;52.828;-8.980;2023-05-19T00:37:26;103115.83;;;12.11;80.16
57412;BME280;43247;52.828;-8.980;2023-05-19T00:38:26;103113.63;;;12.09;80.27
57412;BME280;43247;52.828;-8.980;2023-05-19T00:39:26;103111.56;;;12.09;80.27
57412;BME280;43247;52.828;-8.980;2023-05-19T00:40:28;103109.99;;;12.07;80.19
57412;BME280;43247;52.828;-8.980;2023-05-19T00:41:27;103110.57;;;12.07;80.27
57412;BME280;43247;52.828;-8.980;2023-05-19T00:42:27;103108.87;;;12.06;80.19
57412;BME280;43247;52.828;-8.980;2023-05-19T00:43:27;103107.04;;;12.05;80.22
57412;BME280;43247;52.828;-8.980;2023-05-19T00:44:27;103106.68;;;12.05;80.15
57412;BME280;43247;52.828;-8.980;2023-05-19T00:45:28;103105.56;;;12.04;80.04
57412;BME280;43247;52.828;-8.980;2023-05-19T00:46:28;103103.95;;;12.03;80.07
57412;BME280;43247;52.828;-8.980;2023-05-19T00:47:28;103103.25;;;12.02;80.17
57412;BME280;43247;52.828;-8.980;2023-05-19T00:48:29;103100.08;;;12.02;80.20
57412;BME280;43247;52.828;-8.980;2023-05-19T00:49:30;103095.56;;;12.01;80.16
57412;BME280;43247;52.828;-8.980;2023-05-19T00:50:30;103093.47;;;12.01;80.14
57412;BME280;43247;52.828;-8.980;2023-05-19T00:51:31;103092.15;;;12.00;80.08
57412;BME280;43247;52.828;-8.980;2023-05-19T00:52:31;103092.37;;;11.99;79.96
57412;BME280;43247;52.828;-8.980;2023-05-19T00:53:32;103090.63;;;11.98;80.02
57412;BME280;43247;52.828;-8.980;2023-05-19T00:54:32;103091.31;;;11.98;80.01
57412;BME280;43247;52.828;-8.980;2023-05-19T00:55:32;103090.01;;;11.97;80.07
57412;BME280;43247;52.828;-8.980;2023-05-19T00:56:33;103089.75;;;11.96;80.01
57412;BME280;43247;52.828;-8.980;2023-05-19T00:57:33;103090.05;;;11.95;79.96
57412;BME280;43247;52.828;-8.980;2023-05-19T00:58:33;103090.06;;;11.95;79.98
57412;BME280;43247;52.828;-8.980;2023-05-19T00:59:33;103092.38;;;11.94;80.03
57412;BME280;43247;52.828;-8.980;2023-05-19T01:00:34;103091.55;;;11.93;80.02
57412;BME280;43247;52.828;-8.980;2023-05-19T01:01:35;103090.69;;;11.93;80.01
57412;BME280;43247;52.828;-8.980;2023-05-19T01:02:36;103088.00;;;11.92;80.04
57412;BME280;43247;52.828;-8.980;2023-05-19T01:03:36;103089.70;;;11.91;79.98
57412;BME280;43247;52.828;-8.980;2023-05-19T01:04:37;103089.57;;;11.90;80.10
57412;BME280;43247;52.828;-8.980;2023-05-19T01:05:38;103088.75;;;11.90;80.12
57412;BME280;43247;52.828;-8.980;2023-05-19T01:06:37;103093.47;;;11.89;79.78
57412;BME280;43247;52.828;-8.980;2023-05-19T01:07:37;103099.58;;;11.91;79.50
57412;BME280;43247;52.828;-8.980;2023-05-19T01:08:38;103102.32;;;11.92;79.17
57412;BME280;43247;52.828;-8.980;2023-05-19T01:09:38;103099.83;;;11.94;79.21
57412;BME280;43247;52.828;-8.980;2023-05-19T01:10:39;103098.11;;;11.96;79.10
57412;BME280;43247;52.828;-8.980;2023-05-19T01:11:39;103096.28;;;11.96;78.92
57412;BME280;43247;52.828;-8.980;2023-05-19T01:12:40;103093.31;;;11.96;78.66
57412;BME280;43247;52.828;-8.980;2023-05-19T01:13:40;103093.09;;;11.96;78.47
57412;BME280;43247;52.828;-8.980;2023-05-19T01:14:40;103088.14;;;11.95;78.76
57412;BME280;43247;52.828;-8.980;2023-05-19T01:15:52;103087.63;;;11.95;78.77
57412;BME280;43247;52.828;-8.980;2023-05-19T01:16:48;103087.49;;;11.95;78.70
57412;BME280;43247;52.828;-8.980;2023-05-19T01:17:47;103088.46;;;11.96;78.62
57412;BME280;43247;52.828;-8.980;2023-05-19T01:18:48;103089.53;;;11.95;78.96
57412;BME280;43247;52.828;-8.980;2023-05-19T01:19:56;103092.16;;;11.96;78.80
57412;BME280;43247;52.828;-8.980;2023-05-19T01:20:46;103093.74;;;11.97;79.02
57412;BME280;43247;52.828;-8.980;2023-05-19T01:22:56;103095.74;;;11.97;78.70
57412;BME280;43247;52.828;-8.980;2023-05-19T01:23:50;103091.43;;;11.98;78.92
57412;BME280;43247;52.828;-8.980;2023-05-19T01:26:06;103089.18;;;11.98;78.95
57412;BME280;43247;52.828;-8.980;2023-05-19T01:27:01;103090.12;;;11.97;79.06
57412;BME280;43247;52.828;-8.980;2023-05-19T01:30:52;103090.49;;;11.94;79.00
57412;BME280;43247;52.828;-8.980;2023-05-19T01:31:48;103089.83;;;11.94;79.05
57412;BME280;43247;52.828;-8.980;2023-05-19T01:32:50;103085.99;;;11.93;79.08
57412;BME280;43247;52.828;-8.980;2023-05-19T01:33:52;103083.31;;;11.92;79.18
57412;BME280;43247;52.828;-8.980;2023-05-19T01:34:50;103082.37;;;11.90;79.33
57412;BME280;43247;52.828;-8.980;2023-05-19T01:35:53;103078.67;;;11.88;79.36
57412;BME280;43247;52.828;-8.980;2023-05-19T01:36:53;103077.56;;;11.86;79.42
57412;BME280;43247;52.828;-8.980;2023-05-19T01:37:54;103080.86;;;11.85;79.47
57412;BME280;43247;52.828;-8.980;2023-05-19T01:38:55;103080.55;;;11.85;79.45
57412;BME280;43247;52.828;-8.980;2023-05-19T01:39:53;103083.88;;;11.84;79.54
57412;BME280;43247;52.828;-8.980;2023-05-19T01:40:53;103086.65;;;11.81;79.03
57412;BME280;43247;52.828;-8.980;2023-05-19T01:41:54;103084.42;;;11.76;78.26
57412;BME280;43247;52.828;-8.980;2023-05-19T01:42:56;103082.91;;;11.65;77.98
57412;BME280;43247;52.828;-8.980;2023-05-19T01:43:55;103080.77;;;11.65;77.68
57412;BME280;43247;52.828;-8.980;2023-05-19T01:44:55;103080.64;;;11.73;77.24
57412;BME280;43247;52.828;-8.980;2023-05-19T01:45:55;103082.27;;;11.70;76.99
57412;BME280;43247;52.828;-8.980;2023-05-19T01:46:55;103082.17;;;11.70;76.90
57412;BME280;43247;52.828;-8.980;2023-05-19T01:47:57;103083.08;;;11.66;76.91
57412;BME280;43247;52.828;-8.980;2023-05-19T01:48:57;103083.53;;;11.72;76.79
57412;BME280;43247;52.828;-8.980;2023-05-19T01:49:56;103084.11;;;11.66;76.77
57412;BME280;43247;52.828;-8.980;2023-05-19T01:50:57;103084.70;;;11.66;76.88
57412;BME280;43247;52.828;-8.980;2023-05-19T01:51:57;103080.98;;;11.71;76.65
57412;BME280;43247;52.828;-8.980;2023-05-19T01:52:59;103079.91;;;11.73;76.65
57412;BME280;43247;52.828;-8.980;2023-05-19T01:53:59;103077.09;;;11.80;76.60
57412;BME280;43247;52.828;-8.980;2023-05-19T01:54:59;103077.57;;;11.78;76.77
57412;BME280;43247;52.828;-8.980;2023-05-19T01:55:59;103082.20;;;11.79;76.62
57412;BME280;43247;52.828;-8.980;2023-05-19T01:57:06;103083.29;;;11.73;76.74
57412;BME280;43247;52.828;-8.980;2023-05-19T01:58:08;103084.49;;;11.71;76.95
57412;BME280;43247;52.828;-8.980;2023-05-19T01:59:10;103084.83;;;11.69;76.99
57412;BME280;43247;52.828;-8.980;2023-05-19T02:00:08;103084.01;;;11.67;77.09
57412;BME280;43247;52.828;-8.980;2023-05-19T02:01:10;103085.39;;;11.67;77.16
57412;BME280;43247;52.828;-8.980;2023-05-19T02:02:11;103089.21;;;11.69;77.20
57412;BME280;43247;52.828;-8.980;2023-05-19T02:03:12;103092.41;;;11.73;77.12
57412;BME280;43247;52.828;-8.980;2023-05-19T02:04:15;103092.74;;;11.70;77.00
57412;BME280;43247;52.828;-8.980;2023-05-19T02:05:10;103094.31;;;11.68;77.06
57412;BME280;43247;52.828;-8.980;2023-05-19T02:06:17;103091.43;;;11.80;77.05
57412;BME280;43247;52.828;-8.980;2023-05-19T02:07:11;103088.56;;;11.85;76.91
57412;BME280;43247;52.828;-8.980;2023-05-19T02:08:12;103086.02;;;11.89;76.71
57412;BME280;43247;52.828;-8.980;2023-05-19T02:09:12;103081.13;;;11.91;77.05
57412;BME280;43247;52.828;-8.980;2023-05-19T02:10:12;103080.74;;;11.91;76.89
57412;BME280;43247;52.828;-8.980;2023-05-19T02:11:12;103080.14;;;11.92;76.91
57412;BME280;43247;52.828;-8.980;2023-05-19T02:12:12;103079.45;;;11.91;76.71
57412;BME280;43247;52.828;-8.980;2023-05-19T02:13:11;103082.87;;;11.94;76.82
57412;BME280;43247;52.828;-8.980;2023-05-19T02:14:14;103084.22;;;11.92;76.82
57412;BME280;43247;52.828;-8.980;2023-05-19T02:15:12;103085.43;;;11.91;76.60
57412;BME280;43247;52.828;-8.980;2023-05-19T02:16:10;103086.67;;;11.91;77.12
57412;BME280;43247;52.828;-8.980;2023-05-19T02:17:12;103089.67;;;11.89;77.06
57412;BME280;43247;52.828;-8.980;2023-05-19T02:18:10;103091.13;;;11.90;77.16
57412;BME280;43247;52.828;-8.980;2023-05-19T02:20:11;103085.19;;;11.90;77.17
57412;BME280;43247;52.828;-8.980;2023-05-19T02:21:10;103083.30;;;11.89;77.16
57412;BME280;43247;52.828;-8.980;2023-05-19T02:22:11;103082.49;;;11.89;77.24
57412;BME280;43247;52.828;-8.980;2023-05-19T02:23:11;103081.26;;;11.90;77.21
57412;BME280;43247;52.828;-8.980;2023-05-19T02:24:12;103082.45;;;11.90;77.28
57412;BME280;43247;52.828;-8.980;2023-05-19T02:25:13;103079.14;;;11.90;77.48
57412;BME280;43247;52.828;-8.980;2023-05-19T02:26:13;103074.98;;;11.90;77.40
57412;BME280;43247;52.828;-8.980;2023-05-19T02:27:14;103071.86;;;11.90;77.63
57412;BME280;43247;52.828;-8.980;2023-05-19T02:28:14;103070.96;;;11.90;77.57
57412;BME280;43247;52.828;-8.980;2023-05-19T02:29:15;103071.07;;;11.90;77.67
57412;BME280;43247;52.828;-8.980;2023-05-19T02:30:16;103069.97;;;11.89;77.52
57412;BME280;43247;52.828;-8.980;2023-05-19T02:31:16;103071.45;;;11.89;77.66
57412;BME280;43247;52.828;-8.980;2023-05-19T02:32:16;103073.03;;;11.88;77.59
57412;BME280;43247;52.828;-8.980;2023-05-19T02:33:16;103074.37;;;11.87;77.74
57412;BME280;43247;52.828;-8.980;2023-05-19T02:34:16;103072.71;;;11.85;77.73
57412;BME280;43247;52.828;-8.980;2023-05-19T02:35:17;103071.96;;;11.84;77.65
57412;BME280;43247;52.828;-8.980;2023-05-19T02:36:17;103072.96;;;11.84;77.94
57412;BME280;43247;52.828;-8.980;2023-05-19T02:37:18;103072.64;;;11.82;77.98
57412;BME280;43247;52.828;-8.980;2023-05-19T02:38:18;103072.53;;;11.82;77.90
57412;BME280;43247;52.828;-8.980;2023-05-19T02:39:19;103072.89;;;11.82;77.98
57412;BME280;43247;52.828;-8.980;2023-05-19T02:40:20;103070.63;;;11.81;77.90
57412;BME280;43247;52.828;-8.980;2023-05-19T02:41:20;103068.92;;;11.81;77.97
57412;BME280;43247;52.828;-8.980;2023-05-19T02:42:21;103068.44;;;11.80;77.98
57412;BME280;43247;52.828;-8.980;2023-05-19T02:43:21;103068.13;;;11.80;78.02
57412;BME280;43247;52.828;-8.980;2023-05-19T02:44:21;103071.80;;;11.79;78.03
57412;BME280;43247;52.828;-8.980;2023-05-19T02:45:21;103071.96;;;11.79;77.97
57412;BME280;43247;52.828;-8.980;2023-05-19T02:46:22;103071.71;;;11.78;77.99
57412;BME280;43247;52.828;-8.980;2023-05-19T02:47:22;103071.41;;;11.78;78.09
57412;BME280;43247;52.828;-8.980;2023-05-19T02:48:23;103070.96;;;11.77;78.07
57412;BME280;43247;52.828;-8.980;2023-05-19T02:49:24;103070.13;;;11.76;78.14
57412;BME280;43247;52.828;-8.980;2023-05-19T02:50:24;103069.02;;;11.76;78.26
57412;BME280;43247;52.828;-8.980;2023-05-19T02:51:24;103066.27;;;11.75;78.13
57412;BME280;43247;52.828;-8.980;2023-05-19T02:52:24;103065.58;;;11.74;78.15
57412;BME280;43247;52.828;-8.980;2023-05-19T02:53:25;103067.16;;;11.74;78.20
57412;BME280;43247;52.828;-8.980;2023-05-19T02:54:25;103065.73;;;11.73;78.25
57412;BME280;43247;52.828;-8.980;2023-05-19T02:55:25;103066.33;;;11.73;78.32
57412;BME280;43247;52.828;-8.980;2023-05-19T02:56:25;103071.27;;;11.72;78.25
57412;BME280;43247;52.828;-8.980;2023-05-19T02:57:25;103072.70;;;11.68;78.16
57412;BME280;43247;52.828;-8.980;2023-05-19T02:58:25;103074.55;;;11.65;77.94
57412;BME280;43247;52.828;-8.980;2023-05-19T02:59:26;103075.09;;;11.64;77.57
57412;BME280;43247;52.828;-8.980;2023-05-19T03:00:26;103076.11;;;11.59;77.31
57412;BME280;43247;52.828;-8.980;2023-05-19T03:01:26;103074.48;;;11.46;77.40
57412;BME280;43247;52.828;-8.980;2023-05-19T03:02:27;103075.58;;;11.44;77.26
57412;BME280;43247;52.828;-8.980;2023-05-19T03:03:27;103077.44;;;11.39;77.27
57412;BME280;43247;52.828;-8.980;2023-05-19T03:04:28;103079.75;;;11.46;76.95
57412;BME280;43247;52.828;-8.980;2023-05-19T03:05:28;103077.18;;;11.47;76.51
57412;BME280;43247;52.828;-8.980;2023-05-19T03:06:28;103082.08;;;11.46;76.64
57412;BME280;43247;52.828;-8.980;2023-05-19T03:07:29;103082.71;;;11.54;76.46
57412;BME280;43247;52.828;-8.980;2023-05-19T03:08:29;103085.25;;;11.61;76.28
57412;BME280;43247;52.828;-8.980;2023-05-19T03:09:29;103084.05;;;11.63;76.14
57412;BME280;43247;52.828;-8.980;2023-05-19T03:10:30;103083.78;;;11.66;76.02
57412;BME280;43247;52.828;-8.980;2023-05-19T03:11:30;103082.92;;;11.62;76.13
57412;BME280;43247;52.828;-8.980;2023-05-19T03:12:30;103087.37;;;11.68;75.87
57412;BME280;43247;52.828;-8.980;2023-05-19T03:13:30;103087.45;;;11.53;75.88
57412;BME280;43247;52.828;-8.980;2023-05-19T03:14:31;103088.01;;;11.51;75.75
57412;BME280;43247;52.828;-8.980;2023-05-19T03:15:31;103089.20;;;11.49;75.74
57412;BME280;43247;52.828;-8.980;2023-05-19T03:16:31;103088.43;;;11.46;75.96
57412;BME280;43247;52.828;-8.980;2023-05-19T03:17:31;103093.02;;;11.51;75.69
57412;BME280;43247;52.828;-8.980;2023-05-19T03:18:31;103093.01;;;11.50;75.80
57412;BME280;43247;52.828;-8.980;2023-05-19T03:19:31;103097.07;;;11.49;75.66
57412;BME280;43247;52.828;-8.980;2023-05-19T03:20:31;103096.21;;;11.45;75.75
57412;BME280;43247;52.828;-8.980;2023-05-19T03:21:32;103094.06;;;11.46;75.75
57412;BME280;43247;52.828;-8.980;2023-05-19T03:22:32;103097.38;;;11.49;75.68
57412;BME280;43247;52.828;-8.980;2023-05-19T03:23:33;103095.87;;;11.53;75.60
57412;BME280;43247;52.828;-8.980;2023-05-19T03:24:33;103096.98;;;11.60;75.34
57412;BME280;43247;52.828;-8.980;2023-05-19T03:25:33;103097.59;;;11.63;75.27
57412;BME280;43247;52.828;-8.980;2023-05-19T03:26:34;103095.71;;;11.65;75.39
57412;BME280;43247;52.828;-8.980;2023-05-19T03:27:34;103093.06;;;11.68;75.46
57412;BME280;43247;52.828;-8.980;2023-05-19T03:28:34;103096.55;;;11.67;75.35
57412;BME280;43247;52.828;-8.980;2023-05-19T03:29:34;103092.94;;;11.54;75.42
57412;BME280;43247;52.828;-8.980;2023-05-19T03:30:35;103092.96;;;11.47;75.55
57412;BME280;43247;52.828;-8.980;2023-05-19T03:31:35;103091.48;;;11.50;75.45
57412;BME280;43247;52.828;-8.980;2023-05-19T03:32:36;103092.33;;;11.48;75.36
57412;BME280;43247;52.828;-8.980;2023-05-19T03:33:36;103091.79;;;11.47;75.38
57412;BME280;43247;52.828;-8.980;2023-05-19T03:34:37;103094.18;;;11.49;75.32
57412;BME280;43247;52.828;-8.980;2023-05-19T03:35:37;103090.24;;;11.49;75.36
57412;BME280;43247;52.828;-8.980;2023-05-19T03:36:37;103089.13;;;11.45;75.34
57412;BME280;43247;52.828;-8.980;2023-05-19T03:37:37;103086.14;;;11.46;75.27
57412;BME280;43247;52.828;-8.980;2023-05-19T03:38:37;103081.96;;;11.45;75.29
57412;BME280;43247;52.828;-8.980;2023-05-19T03:39:38;103082.79;;;11.43;75.32
57412;BME280;43247;52.828;-8.980;2023-05-19T03:40:38;103081.16;;;11.40;75.50
57412;BME280;43247;52.828;-8.980;2023-05-19T03:41:38;103084.26;;;11.58;74.84
57412;BME280;43247;52.828;-8.980;2023-05-19T03:42:39;103090.62;;;11.63;74.82
57412;BME280;43247;52.828;-8.980;2023-05-19T03:43:40;103091.79;;;11.52;74.94
57412;BME280;43247;52.828;-8.980;2023-05-19T03:44:40;103092.76;;;11.49;75.07
57412;BME280;43247;52.828;-8.980;2023-05-19T03:45:41;103094.85;;;11.44;75.19
57412;BME280;43247;52.828;-8.980;2023-05-19T03:46:40;103094.72;;;11.46;75.19
57412;BME280;43247;52.828;-8.980;2023-05-19T03:47:41;103094.88;;;11.44;75.15
57412;BME280;43247;52.828;-8.980;2023-05-19T03:48:41;103101.61;;;11.43;75.13
57412;BME280;43247;52.828;-8.980;2023-05-19T03:49:41;103106.08;;;11.45;75.04
57412;BME280;43247;52.828;-8.980;2023-05-19T03:50:42;103107.70;;;11.48;75.19
57412;BME280;43247;52.828;-8.980;2023-05-19T03:51:42;103112.53;;;11.45;75.14
57412;BME280;43247;52.828;-8.980;2023-05-19T03:52:42;103111.30;;;11.45;75.09
57412;BME280;43247;52.828;-8.980;2023-05-19T03:53:42;103109.88;;;11.48;74.86
57412;BME280;43247;52.828;-8.980;2023-05-19T03:54:42;103111.43;;;11.51;74.80
57412;BME280;43247;52.828;-8.980;2023-05-19T03:55:43;103108.65;;;11.54;74.63
57412;BME280;43247;52.828;-8.980;2023-05-19T03:56:43;103107.71;;;11.55;74.70
57412;BME280;43247;52.828;-8.980;2023-05-19T03:57:43;103109.30;;;11.62;74.55
57412;BME280;43247;52.828;-8.980;2023-05-19T03:58:43;103110.58;;;11.57;74.80
57412;BME280;43247;52.828;-8.980;2023-05-19T03:59:43;103108.39;;;11.62;74.94
57412;BME280;43247;52.828;-8.980;2023-05-19T04:00:44;103107.33;;;11.64;74.82
57412;BME280;43247;52.828;-8.980;2023-05-19T04:01:45;103109.13;;;11.58;74.88
57412;BME280;43247;52.828;-8.980;2023-05-19T04:02:45;103108.82;;;11.58;74.67
57412;BME280;43247;52.828;-8.980;2023-05-19T04:03:45;103111.25;;;11.58;74.75
57412;BME280;43247;52.828;-8.980;2023-05-19T04:04:45;103110.35;;;11.56;74.93
57412;BME280;43247;52.828;-8.980;2023-05-19T04:05:45;103106.52;;;11.51;75.16
57412;BME280;43247;52.828;-8.980;2023-05-19T04:06:46;103104.80;;;11.46;75.26
57412;BME280;43247;52.828;-8.980;2023-05-19T04:07:46;103102.76;;;11.44;75.40
57412;BME280;43247;52.828;-8.980;2023-05-19T04:08:46;103100.83;;;11.47;75.42
57412;BME280;43247;52.828;-8.980;2023-05-19T04:09:46;103103.28;;;11.46;75.49
57412;BME280;43247;52.828;-8.980;2023-05-19T04:10:46;103105.02;;;11.45;75.67
57412;BME280;43247;52.828;-8.980;2023-05-19T04:11:46;103106.90;;;11.47;75.68
57412;BME280;43247;52.828;-8.980;2023-05-19T04:12:47;103108.91;;;11.45;75.80
57412;BME280;43247;52.828;-8.980;2023-05-19T04:13:47;103107.90;;;11.43;75.91
57412;BME280;43247;52.828;-8.980;2023-05-19T04:14:48;103105.53;;;11.41;76.11
57412;BME280;43247;52.828;-8.980;2023-05-19T04:15:48;103104.75;;;11.46;75.90
57412;BME280;43247;52.828;-8.980;2023-05-19T04:16:48;103106.65;;;11.56;75.70
57412;BME280;43247;52.828;-8.980;2023-05-19T04:17:48;103105.66;;;11.56;75.72
57412;BME280;43247;52.828;-8.980;2023-05-19T04:18:49;103105.91;;;11.61;75.85
57412;BME280;43247;52.828;-8.980;2023-05-19T04:19:49;103107.50;;;11.64;75.65
57412;BME280;43247;52.828;-8.980;2023-05-19T04:20:49;103108.79;;;11.62;75.69
57412;BME280;43247;52.828;-8.980;2023-05-19T04:21:51;103108.46;;;11.64;75.62
57412;BME280;43247;52.828;-8.980;2023-05-19T04:22:51;103106.91;;;11.66;75.71
57412;BME280;43247;52.828;-8.980;2023-05-19T04:23:52;103107.68;;;11.67;75.89
57412;BME280;43247;52.828;-8.980;2023-05-19T04:24:52;103110.66;;;11.67;75.65
57412;BME280;43247;52.828;-8.980;2023-05-19T04:25:52;103109.21;;;11.65;75.74
57412;BME280;43247;52.828;-8.980;2023-05-19T04:26:52;103110.65;;;11.64;75.97
57412;BME280;43247;52.828;-8.980;2023-05-19T04:27:52;103110.03;;;11.62;76.01
57412;BME280;43247;52.828;-8.980;2023-05-19T04:28:52;103112.77;;;11.62;75.87
57412;BME280;43247;52.828;-8.980;2023-05-19T04:29:53;103113.74;;;11.62;76.02
57412;BME280;43247;52.828;-8.980;2023-05-19T04:30:53;103113.48;;;11.62;76.18
57412;BME280;43247;52.828;-8.980;2023-05-19T04:31:54;103114.59;;;11.62;76.37
57412;BME280;43247;52.828;-8.980;2023-05-19T04:32:54;103115.48;;;11.64;76.33
57412;BME280;43247;52.828;-8.980;2023-05-19T04:33:54;103113.81;;;11.64;76.26
57412;BME280;43247;52.828;-8.980;2023-05-19T04:34:54;103112.33;;;11.63;76.32
57412;BME280;43247;52.828;-8.980;2023-05-19T04:35:55;103113.91;;;11.62;76.37
57412;BME280;43247;52.828;-8.980;2023-05-19T04:36:55;103113.98;;;11.62;76.44
57412;BME280;43247;52.828;-8.980;2023-05-19T04:37:55;103115.08;;;11.59;76.52
57412;BME280;43247;52.828;-8.980;2023-05-19T04:38:56;103114.54;;;11.58;76.52
57412;BME280;43247;52.828;-8.980;2023-05-19T04:39:56;103115.47;;;11.57;76.55
57412;BME280;43247;52.828;-8.980;2023-05-19T04:40:57;103116.19;;;11.57;76.58
57412;BME280;43247;52.828;-8.980;2023-05-19T04:41:57;103115.45;;;11.56;76.76
57412;BME280;43247;52.828;-8.980;2023-05-19T04:42:57;103113.45;;;11.55;76.82
57412;BME280;43247;52.828;-8.980;2023-05-19T04:43:57;103111.17;;;11.54;76.81
57412;BME280;43247;52.828;-8.980;2023-05-19T04:44:58;103107.76;;;11.53;76.87
57412;BME280;43247;52.828;-8.980;2023-05-19T04:45:58;103105.05;;;11.52;77.22
57412;BME280;43247;52.828;-8.980;2023-05-19T04:46:58;103101.75;;;11.51;77.00
57412;BME280;43247;52.828;-8.980;2023-05-19T04:47:59;103104.68;;;11.50;77.08
57412;BME280;43247;52.828;-8.980;2023-05-19T04:48:59;103108.43;;;11.48;77.07
57412;BME280;43247;52.828;-8.980;2023-05-19T04:49:59;103113.64;;;11.48;77.11
57412;BME280;43247;52.828;-8.980;2023-05-19T04:50:59;103116.53;;;11.47;77.09
57412;BME280;43247;52.828;-8.980;2023-05-19T04:52:00;103119.96;;;11.46;77.01
57412;BME280;43247;52.828;-8.980;2023-05-19T04:53:00;103121.62;;;11.46;77.12
57412;BME280;43247;52.828;-8.980;2023-05-19T04:54:00;103120.31;;;11.46;77.19
57412;BME280;43247;52.828;-8.980;2023-05-19T04:55:00;103119.67;;;11.45;77.19
57412;BME280;43247;52.828;-8.980;2023-05-19T04:56:00;103120.70;;;11.44;77.20
57412;BME280;43247;52.828;-8.980;2023-05-19T04:57:01;103118.95;;;11.43;77.28
57412;BME280;43247;52.828;-8.980;2023-05-19T04:58:01;103121.14;;;11.43;77.31
57412;BME280;43247;52.828;-8.980;2023-05-19T04:59:02;103119.55;;;11.42;77.29
57412;BME280;43247;52.828;-8.980;2023-05-19T05:00:05;103114.70;;;11.41;77.34
57412;BME280;43247;52.828;-8.980;2023-05-19T05:01:04;103112.89;;;11.40;77.45
57412;BME280;43247;52.828;-8.980;2023-05-19T05:02:05;103113.05;;;11.40;77.52
57412;BME280;43247;52.828;-8.980;2023-05-19T05:03:05;103115.84;;;11.40;77.54
57412;BME280;43247;52.828;-8.980;2023-05-19T05:04:05;103117.31;;;11.39;77.54
57412;BME280;43247;52.828;-8.980;2023-05-19T05:05:07;103119.00;;;11.38;77.59
57412;BME280;43247;52.828;-8.980;2023-05-19T05:06:06;103119.91;;;11.37;77.67
57412;BME280;43247;52.828;-8.980;2023-05-19T05:07:06;103118.20;;;11.37;77.74
57412;BME280;43247;52.828;-8.980;2023-05-19T05:08:06;103118.68;;;11.36;77.66
57412;BME280;43247;52.828;-8.980;2023-05-19T05:09:06;103119.32;;;11.35;77.74
57412;BME280;43247;52.828;-8.980;2023-05-19T05:10:08;103123.91;;;11.34;77.82
57412;BME280;43247;52.828;-8.980;2023-05-19T05:11:07;103126.32;;;11.34;77.77
57412;BME280;43247;52.828;-8.980;2023-05-19T05:12:08;103128.20;;;11.33;77.95
57412;BME280;43247;52.828;-8.980;2023-05-19T05:13:08;103125.80;;;11.33;78.01
57412;BME280;43247;52.828;-8.980;2023-05-19T05:14:08;103125.23;;;11.33;78.03
57412;BME280;43247;52.828;-8.980;2023-05-19T05:15:09;103126.32;;;11.32;77.96
57412;BME280;43247;52.828;-8.980;2023-05-19T05:16:09;103129.64;;;11.32;77.96
57412;BME280;43247;52.828;-8.980;2023-05-19T05:17:10;103129.49;;;11.32;78.00